sensor_id;sensor_type;location;lat;lon;timestamp;temperature;humidity
45685;DHT22;46836;48.388;16.210;2023-03-01T00:01:08;-0.30;99.90
45685;DHT22;46836;48.388;16.210;2023-03-01T00:03:35;-0.30;99.90
45685;DHT22;46836;48.388;16.210;2023-03-01T00:06:03;-0.40;99.90
45685;DHT22;46836;48.388;16.210;2023-03-01T00:08:31;-0.30;99.90
45685;DHT22;46836;48.388;16.210;2023-03-01T00:13:41;-0.30;99.90
45685;DHT22;46836;48.388;16.210;2023-03-01T00:16:12;-0.40;99.90
45685;DHT22;46836;48.388;16.210;2023-03-01T00:18:40;-0.40;99.90
45685;DHT22;46836;48.388;16.210;2023-03-01T00:21:07;-0.40;99.90
45685;DHT22;46836;48.388;16.210;2023-03-01T00:23:35;-0.40;99.90
45685;DHT22;46836;48.388;16.210;2023-03-01T00:26:05;-0.40;99.90
45685;DHT22;46836;48.388;16.210;2023-03-01T00:28:33;-0.40;99.90
45685;DHT22;46836;48.388;16.210;2023-03-01T00:31:05;-0.50;99.90
45685;DHT22;46836;48.388;16.210;2023-03-01T00:33:32;-0.50;99.90
45685;DHT22;46836;48.388;16.210;2023-03-01T00:36:00;-0.50;99.90
45685;DHT22;46836;48.388;16.210;2023-03-01T00:38:28;-0.50;99.90
45685;DHT22;46836;48.388;16.210;2023-03-01T00:40:55;-0.60;99.90
45685;DHT22;46836;48.388;16.210;2023-03-01T00:43:22;-0.60;99.90
45685;DHT22;46836;48.388;16.210;2023-03-01T00:45:49;-0.60;99.90
45685;DHT22;46836;48.388;16.210;2023-03-01T00:48:16;-0.60;99.90
45685;DHT22;46836;48.388;16.210;2023-03-01T00:50:43;-0.60;99.90
45685;DHT22;46836;48.388;16.210;2023-03-01T00:53:10;-0.60;99.90
45685;DHT22;46836;48.388;16.210;2023-03-01T00:55:37;-0.60;99.90
45685;DHT22;46836;48.388;16.210;2023-03-01T00:58:04;-0.60;99.90
45685;DHT22;46836;48.388;16.210;2023-03-01T01:00:31;-0.60;99.90
45685;DHT22;46836;48.388;16.210;2023-03-01T01:02:58;-0.60;99.90
45685;DHT22;46836;48.388;16.210;2023-03-01T01:05:25;-0.70;99.90
45685;DHT22;46836;48.388;16.210;2023-03-01T01:07:52;-0.70;99.90
45685;DHT22;46836;48.388;16.210;2023-03-01T01:10:19;-0.60;99.90
45685;DHT22;46836;48.388;16.210;2023-03-01T01:12:47;-0.70;99.90
45685;DHT22;46836;48.388;16.210;2023-03-01T01:15:14;-0.70;99.90
45685;DHT22;46836;48.388;16.210;2023-03-01T01:17:43;-0.70;99.90
45685;DHT22;46836;48.388;16.210;2023-03-01T01:20:11;-0.70;99.90
45685;DHT22;46836;48.388;16.210;2023-03-01T01:22:38;-0.70;99.90
45685;DHT22;46836;48.388;16.210;2023-03-01T01:25:05;-0.80;99.90
45685;DHT22;46836;48.388;16.210;2023-03-01T01:27:32;-0.80;99.90
45685;DHT22;46836;48.388;16.210;2023-03-01T01:29:59;-0.80;99.90
45685;DHT22;46836;48.388;16.210;2023-03-01T01:32:26;-0.80;99.90
45685;DHT22;46836;48.388;16.210;2023-03-01T01:34:53;-0.90;99.90
45685;DHT22;46836;48.388;16.210;2023-03-01T01:37:21;-0.90;99.90
45685;DHT22;46836;48.388;16.210;2023-03-01T01:39:48;-0.90;99.90
45685;DHT22;46836;48.388;16.210;2023-03-01T01:42:18;-1.00;99.90
45685;DHT22;46836;48.388;16.210;2023-03-01T01:44:46;-0.90;99.90
45685;DHT22;46836;48.388;16.210;2023-03-01T01:47:20;-0.90;99.90
45685;DHT22;46836;48.388;16.210;2023-03-01T01:49:55;-0.90;99.90
45685;DHT22;46836;48.388;16.210;2023-03-01T01:52:34;-0.90;99.90
45685;DHT22;46836;48.388;16.210;2023-03-01T01:55:07;-0.90;99.90
45685;DHT22;46836;48.388;16.210;2023-03-01T01:57:47;-1.00;99.90
45685;DHT22;46836;48.388;16.210;2023-03-01T02:00:18;-1.00;99.90
45685;DHT22;46836;48.388;16.210;2023-03-01T02:02:48;-1.00;99.90
45685;DHT22;46836;48.388;16.210;2023-03-01T02:05:39;-1.00;99.90
45685;DHT22;46836;48.388;16.210;2023-03-01T02:08:11;-1.00;99.90
45685;DHT22;46836;48.388;16.210;2023-03-01T02:10:40;-1.00;99.90
45685;DHT22;46836;48.388;16.210;2023-03-01T02:13:08;-1.00;99.90
45685;DHT22;46836;48.388;16.210;2023-03-01T02:15:37;-1.00;99.90
45685;DHT22;46836;48.388;16.210;2023-03-01T02:18:05;-1.00;99.90
45685;DHT22;46836;48.388;16.210;2023-03-01T02:23:24;-0.90;99.90
45685;DHT22;46836;48.388;16.210;2023-03-01T02:26:12;-0.90;99.90
45685;DHT22;46836;48.388;16.210;2023-03-01T02:28:43;-0.90;99.90
45685;DHT22;46836;48.388;16.210;2023-03-01T02:31:16;-1.00;99.90
45685;DHT22;46836;48.388;16.210;2023-03-01T02:34:02;-1.00;99.90
45685;DHT22;46836;48.388;16.210;2023-03-01T02:36:35;-1.00;99.90
45685;DHT22;46836;48.388;16.210;2023-03-01T02:39:05;-1.00;99.90
45685;DHT22;46836;48.388;16.210;2023-03-01T02:41:37;-0.90;99.90
45685;DHT22;46836;48.388;16.210;2023-03-01T02:44:05;-0.90;99.90
45685;DHT22;46836;48.388;16.210;2023-03-01T02:46:32;-0.90;99.90
45685;DHT22;46836;48.388;16.210;2023-03-01T02:49:00;-0.90;99.90
45685;DHT22;46836;48.388;16.210;2023-03-01T02:51:42;-0.80;99.90
45685;DHT22;46836;48.388;16.210;2023-03-01T02:54:33;-0.70;99.90
45685;DHT22;46836;48.388;16.210;2023-03-01T02:57:03;-0.70;99.90
45685;DHT22;46836;48.388;16.210;2023-03-01T02:59:33;-0.60;99.90
45685;DHT22;46836;48.388;16.210;2023-03-01T03:02:07;-0.50;99.90
45685;DHT22;46836;48.388;16.210;2023-03-01T03:04:34;-0.50;99.90
45685;DHT22;46836;48.388;16.210;2023-03-01T03:07:01;-0.40;99.90
45685;DHT22;46836;48.388;16.210;2023-03-01T03:09:28;-0.30;99.90
45685;DHT22;46836;48.388;16.210;2023-03-01T03:11:55;-0.30;99.90
45685;DHT22;46836;48.388;16.210;2023-03-01T03:14:22;-0.20;99.90
45685;DHT22;46836;48.388;16.210;2023-03-01T03:16:50;-0.10;99.90
45685;DHT22;46836;48.388;16.210;2023-03-01T03:19:19;-0.10;99.90
45685;DHT22;46836;48.388;16.210;2023-03-01T03:21:46;0.00;99.90
45685;DHT22;46836;48.388;16.210;2023-03-01T03:24:13;0.00;99.90
45685;DHT22;46836;48.388;16.210;2023-03-01T03:26:40;0.00;99.90
45685;DHT22;46836;48.388;16.210;2023-03-01T03:29:07;0.00;99.90
45685;DHT22;46836;48.388;16.210;2023-03-01T03:31:34;0.00;99.90
45685;DHT22;46836;48.388;16.210;2023-03-01T03:34:02;0.10;99.90
45685;DHT22;46836;48.388;16.210;2023-03-01T03:36:29;0.10;99.90
45685;DHT22;46836;48.388;16.210;2023-03-01T03:38:56;0.10;99.90
45685;DHT22;46836;48.388;16.210;2023-03-01T03:41:23;0.20;99.90
45685;DHT22;46836;48.388;16.210;2023-03-01T03:43:50;0.20;99.90
45685;DHT22;46836;48.388;16.210;2023-03-01T03:46:17;0.30;99.90
45685;DHT22;46836;48.388;16.210;2023-03-01T03:48:45;0.30;99.90
45685;DHT22;46836;48.388;16.210;2023-03-01T03:51:14;0.30;99.90
45685;DHT22;46836;48.388;16.210;2023-03-01T03:53:42;0.20;99.90
45685;DHT22;46836;48.388;16.210;2023-03-01T03:56:10;0.20;99.90
45685;DHT22;46836;48.388;16.210;2023-03-01T03:58:37;0.20;99.90
45685;DHT22;46836;48.388;16.210;2023-03-01T04:01:05;0.20;99.90
45685;DHT22;46836;48.388;16.210;2023-03-01T04:03:33;0.30;99.90
45685;DHT22;46836;48.388;16.210;2023-03-01T04:06:02;0.30;99.90
45685;DHT22;46836;48.388;16.210;2023-03-01T04:08:29;0.30;99.90
45685;DHT22;46836;48.388;16.210;2023-03-01T04:10:59;0.30;99.90
45685;DHT22;46836;48.388;16.210;2023-03-01T04:13:27;0.30;99.90
45685;DHT22;46836;48.388;16.210;2023-03-01T04:15:54;0.30;99.90
45685;DHT22;46836;48.388;16.210;2023-03-01T04:18:23;0.20;99.90
45685;DHT22;46836;48.388;16.210;2023-03-01T04:20:53;0.20;99.90
45685;DHT22;46836;48.388;16.210;2023-03-01T04:23:22;0.20;99.90
45685;DHT22;46836;48.388;16.210;2023-03-01T04:25:55;0.20;99.90
45685;DHT22;46836;48.388;16.210;2023-03-01T04:28:34;0.20;99.90
45685;DHT22;46836;48.388;16.210;2023-03-01T04:31:07;0.20;99.90
45685;DHT22;46836;48.388;16.210;2023-03-01T04:33:47;0.20;99.90
45685;DHT22;46836;48.388;16.210;2023-03-01T04:36:16;0.20;99.90
45685;DHT22;46836;48.388;16.210;2023-03-01T04:38:44;0.20;99.90
45685;DHT22;46836;48.388;16.210;2023-03-01T04:41:17;0.20;99.90
45685;DHT22;46836;48.388;16.210;2023-03-01T04:43:44;0.30;99.90
45685;DHT22;46836;48.388;16.210;2023-03-01T04:46:14;0.30;99.90
45685;DHT22;46836;48.388;16.210;2023-03-01T04:48:43;0.40;99.90
45685;DHT22;46836;48.388;16.210;2023-03-01T04:51:11;0.40;99.90
45685;DHT22;46836;48.388;16.210;2023-03-01T04:53:40;0.50;99.90
45685;DHT22;46836;48.388;16.210;2023-03-01T04:56:08;0.50;99.90
45685;DHT22;46836;48.388;16.210;2023-03-01T04:58:35;0.50;99.90
45685;DHT22;46836;48.388;16.210;2023-03-01T05:01:09;0.60;99.90
45685;DHT22;46836;48.388;16.210;2023-03-01T05:03:46;0.60;99.90
45685;DHT22;46836;48.388;16.210;2023-03-01T05:06:14;0.60;99.90
45685;DHT22;46836;48.388;16.210;2023-03-01T05:08:42;0.60;99.90
45685;DHT22;46836;48.388;16.210;2023-03-01T05:11:10;0.70;99.90
45685;DHT22;46836;48.388;16.210;2023-03-01T05:13:38;0.70;99.90
45685;DHT22;46836;48.388;16.210;2023-03-01T05:16:07;0.70;99.90
45685;DHT22;46836;48.388;16.210;2023-03-01T05:18:39;0.70;99.90
45685;DHT22;46836;48.388;16.210;2023-03-01T05:21:12;0.70;99.90
45685;DHT22;46836;48.388;16.210;2023-03-01T05:23:39;0.70;99.90
45685;DHT22;46836;48.388;16.210;2023-03-01T05:26:07;0.70;99.90
45685;DHT22;46836;48.388;16.210;2023-03-01T05:28:51;0.70;99.90
45685;DHT22;46836;48.388;16.210;2023-03-01T05:31:18;0.70;99.90
45685;DHT22;46836;48.388;16.210;2023-03-01T05:33:45;0.70;99.90
45685;DHT22;46836;48.388;16.210;2023-03-01T05:36:12;0.70;99.90
45685;DHT22;46836;48.388;16.210;2023-03-01T05:38:39;0.80;99.90
45685;DHT22;46836;48.388;16.210;2023-03-01T05:41:14;0.80;99.90
45685;DHT22;46836;48.388;16.210;2023-03-01T05:43:41;0.90;99.90
45685;DHT22;46836;48.388;16.210;2023-03-01T05:46:10;0.90;99.90
45685;DHT22;46836;48.388;16.210;2023-03-01T05:48:39;0.90;99.90
45685;DHT22;46836;48.388;16.210;2023-03-01T05:51:06;1.00;99.90
45685;DHT22;46836;48.388;16.210;2023-03-01T05:53:33;1.10;99.90
45685;DHT22;46836;48.388;16.210;2023-03-01T05:56:03;1.10;99.90
45685;DHT22;46836;48.388;16.210;2023-03-01T05:58:30;1.00;99.90
45685;DHT22;46836;48.388;16.210;2023-03-01T06:00:57;1.10;99.90
45685;DHT22;46836;48.388;16.210;2023-03-01T06:03:25;1.10;99.90
45685;DHT22;46836;48.388;16.210;2023-03-01T06:05:56;1.20;99.90
45685;DHT22;46836;48.388;16.210;2023-03-01T06:08:23;1.20;99.90
45685;DHT22;46836;48.388;16.210;2023-03-01T06:10:53;1.20;99.90
45685;DHT22;46836;48.388;16.210;2023-03-01T06:13:20;1.20;99.90
45685;DHT22;46836;48.388;16.210;2023-03-01T06:15:47;1.30;99.90
45685;DHT22;46836;48.388;16.210;2023-03-01T06:18:15;1.40;99.90
45685;DHT22;46836;48.388;16.210;2023-03-01T06:20:42;1.40;99.90
45685;DHT22;46836;48.388;16.210;2023-03-01T06:23:09;1.40;99.90
45685;DHT22;46836;48.388;16.210;2023-03-01T06:25:37;1.50;99.90
45685;DHT22;46836;48.388;16.210;2023-03-01T06:28:04;1.50;99.90
45685;DHT22;46836;48.388;16.210;2023-03-01T06:30:31;1.50;99.90
45685;DHT22;46836;48.388;16.210;2023-03-01T06:32:58;1.50;99.90
45685;DHT22;46836;48.388;16.210;2023-03-01T06:35:30;1.60;99.90
45685;DHT22;46836;48.388;16.210;2023-03-01T06:37:59;1.60;99.90
45685;DHT22;46836;48.388;16.210;2023-03-01T06:40:27;1.60;99.90
45685;DHT22;46836;48.388;16.210;2023-03-01T06:42:54;1.60;99.90
45685;DHT22;46836;48.388;16.210;2023-03-01T06:45:21;1.70;99.90
45685;DHT22;46836;48.388;16.210;2023-03-01T06:47:49;1.70;99.90
45685;DHT22;46836;48.388;16.210;2023-03-01T06:50:17;1.80;99.90
45685;DHT22;46836;48.388;16.210;2023-03-01T06:52:44;2.20;99.90
45685;DHT22;46836;48.388;16.210;2023-03-01T06:55:13;2.60;99.90
45685;DHT22;46836;48.388;16.210;2023-03-01T06:57:40;2.70;99.90
45685;DHT22;46836;48.388;16.210;2023-03-01T07:00:08;2.70;99.90
45685;DHT22;46836;48.388;16.210;2023-03-01T07:02:35;2.70;99.90
45685;DHT22;46836;48.388;16.210;2023-03-01T07:05:02;2.70;99.90
45685;DHT22;46836;48.388;16.210;2023-03-01T07:07:29;2.80;99.90
45685;DHT22;46836;48.388;16.210;2023-03-01T07:09:57;2.80;99.90
45685;DHT22;46836;48.388;16.210;2023-03-01T07:12:24;2.80;99.90
45685;DHT22;46836;48.388;16.210;2023-03-01T07:14:51;2.90;99.90
45685;DHT22;46836;48.388;16.210;2023-03-01T07:17:18;2.90;99.90
45685;DHT22;46836;48.388;16.210;2023-03-01T07:19:45;2.90;99.90
45685;DHT22;46836;48.388;16.210;2023-03-01T07:22:12;3.00;99.90
45685;DHT22;46836;48.388;16.210;2023-03-01T07:24:41;3.00;99.90
45685;DHT22;46836;48.388;16.210;2023-03-01T07:27:08;3.00;99.90
45685;DHT22;46836;48.388;16.210;2023-03-01T07:29:35;3.10;99.90
45685;DHT22;46836;48.388;16.210;2023-03-01T07:32:05;3.10;99.90
45685;DHT22;46836;48.388;16.210;2023-03-01T07:34:33;3.10;99.90
45685;DHT22;46836;48.388;16.210;2023-03-01T07:37:00;3.10;99.90
45685;DHT22;46836;48.388;16.210;2023-03-01T07:39:27;3.20;99.90
45685;DHT22;46836;48.388;16.210;2023-03-01T07:41:54;3.20;99.90
45685;DHT22;46836;48.388;16.210;2023-03-01T07:44:21;3.20;99.90
45685;DHT22;46836;48.388;16.210;2023-03-01T07:46:48;3.20;99.90
45685;DHT22;46836;48.388;16.210;2023-03-01T07:49:15;3.20;99.90
45685;DHT22;46836;48.388;16.210;2023-03-01T07:51:43;3.30;99.90
45685;DHT22;46836;48.388;16.210;2023-03-01T07:54:10;3.30;99.90
45685;DHT22;46836;48.388;16.210;2023-03-01T07:56:37;3.30;99.90
45685;DHT22;46836;48.388;16.210;2023-03-01T07:59:04;3.30;99.90
45685;DHT22;46836;48.388;16.210;2023-03-01T08:01:31;3.40;99.90
45685;DHT22;46836;48.388;16.210;2023-03-01T08:03:58;3.40;99.90
45685;DHT22;46836;48.388;16.210;2023-03-01T08:06:25;3.40;99.90
45685;DHT22;46836;48.388;16.210;2023-03-01T08:08:53;3.50;99.90
45685;DHT22;46836;48.388;16.210;2023-03-01T08:11:23;3.50;99.90
45685;DHT22;46836;48.388;16.210;2023-03-01T08:13:50;3.60;99.90
45685;DHT22;46836;48.388;16.210;2023-03-01T08:16:20;3.80;99.90
45685;DHT22;46836;48.388;16.210;2023-03-01T08:18:47;3.90;99.90
45685;DHT22;46836;48.388;16.210;2023-03-01T08:21:16;4.00;99.90
45685;DHT22;46836;48.388;16.210;2023-03-01T08:23:43;4.10;99.90
45685;DHT22;46836;48.388;16.210;2023-03-01T08:26:19;4.20;99.90
45685;DHT22;46836;48.388;16.210;2023-03-01T08:28:48;4.30;99.90
45685;DHT22;46836;48.388;16.210;2023-03-01T08:31:24;4.30;99.90
45685;DHT22;46836;48.388;16.210;2023-03-01T08:33:53;4.40;99.90
45685;DHT22;46836;48.388;16.210;2023-03-01T08:36:29;4.40;99.90
45685;DHT22;46836;48.388;16.210;2023-03-01T08:38:57;4.60;99.90
45685;DHT22;46836;48.388;16.210;2023-03-01T08:41:25;4.60;99.90
45685;DHT22;46836;48.388;16.210;2023-03-01T08:43:53;4.70;99.90
45685;DHT22;46836;48.388;16.210;2023-03-01T08:46:33;4.80;99.90
45685;DHT22;46836;48.388;16.210;2023-03-01T08:49:20;4.90;99.90
45685;DHT22;46836;48.388;16.210;2023-03-01T08:51:48;4.90;99.90
45685;DHT22;46836;48.388;16.210;2023-03-01T08:54:18;4.90;99.90
45685;DHT22;46836;48.388;16.210;2023-03-01T08:56:46;5.00;99.90
45685;DHT22;46836;48.388;16.210;2023-03-01T08:59:14;5.10;99.90
45685;DHT22;46836;48.388;16.210;2023-03-01T09:01:42;5.20;99.90
45685;DHT22;46836;48.388;16.210;2023-03-01T09:04:12;5.30;99.90
45685;DHT22;46836;48.388;16.210;2023-03-01T09:06:41;5.30;99.90
45685;DHT22;46836;48.388;16.210;2023-03-01T09:09:14;5.40;99.90
45685;DHT22;46836;48.388;16.210;2023-03-01T09:11:43;5.50;99.90
45685;DHT22;46836;48.388;16.210;2023-03-01T09:14:13;5.50;99.90
45685;DHT22;46836;48.388;16.210;2023-03-01T09:16:41;5.60;99.90
45685;DHT22;46836;48.388;16.210;2023-03-01T09:19:08;5.60;99.90
45685;DHT22;46836;48.388;16.210;2023-03-01T09:21:35;5.70;99.90
45685;DHT22;46836;48.388;16.210;2023-03-01T09:24:14;5.70;99.90
45685;DHT22;46836;48.388;16.210;2023-03-01T09:26:42;5.80;99.90
45685;DHT22;46836;48.388;16.210;2023-03-01T09:29:09;5.90;99.90
45685;DHT22;46836;48.388;16.210;2023-03-01T09:31:37;6.20;99.90
45685;DHT22;46836;48.388;16.210;2023-03-01T09:34:05;6.40;99.90
45685;DHT22;46836;48.388;16.210;2023-03-01T09:36:32;6.60;99.90
45685;DHT22;46836;48.388;16.210;2023-03-01T09:39:00;6.70;99.90
45685;DHT22;46836;48.388;16.210;2023-03-01T09:44:48;6.80;99.90
45685;DHT22;46836;48.388;16.210;2023-03-01T09:47:19;6.80;99.90
45685;DHT22;46836;48.388;16.210;2023-03-01T09:50:10;7.00;99.90
45685;DHT22;46836;48.388;16.210;2023-03-01T09:55:12;6.90;99.90
45685;DHT22;46836;48.388;16.210;2023-03-01T09:58:04;6.70;99.90
45685;DHT22;46836;48.388;16.210;2023-03-01T10:00:44;6.80;99.90
45685;DHT22;46836;48.388;16.210;2023-03-01T10:03:28;6.90;99.90
45685;DHT22;46836;48.388;16.210;2023-03-01T10:08:56;7.10;99.90
45685;DHT22;46836;48.388;16.210;2023-03-01T10:11:27;7.30;99.90
45685;DHT22;46836;48.388;16.210;2023-03-01T10:14:03;7.40;99.90
45685;DHT22;46836;48.388;16.210;2023-03-01T10:16:40;7.50;99.90
45685;DHT22;46836;48.388;16.210;2023-03-01T10:19:18;7.50;99.90
45685;DHT22;46836;48.388;16.210;2023-03-01T10:21:48;7.60;99.90
45685;DHT22;46836;48.388;16.210;2023-03-01T10:24:18;7.80;99.90
45685;DHT22;46836;48.388;16.210;2023-03-01T10:26:54;7.80;99.90
45685;DHT22;46836;48.388;16.210;2023-03-01T10:29:47;7.80;99.90
45685;DHT22;46836;48.388;16.210;2023-03-01T10:32:16;7.80;99.90
45685;DHT22;46836;48.388;16.210;2023-03-01T10:34:44;7.90;99.90
45685;DHT22;46836;48.388;16.210;2023-03-01T10:37:13;7.90;99.90
45685;DHT22;46836;48.388;16.210;2023-03-01T10:39:57;7.90;99.90
45685;DHT22;46836;48.388;16.210;2023-03-01T10:45:31;7.80;99.90
45685;DHT22;46836;48.388;16.210;2023-03-01T10:48:05;7.70;99.90
45685;DHT22;46836;48.388;16.210;2023-03-01T10:50:32;7.70;99.90
45685;DHT22;46836;48.388;16.210;2023-03-01T10:53:04;7.70;99.90
45685;DHT22;46836;48.388;16.210;2023-03-01T10:55:33;7.80;99.90
45685;DHT22;46836;48.388;16.210;2023-03-01T10:58:21;7.90;99.90
45685;DHT22;46836;48.388;16.210;2023-03-01T11:00:57;8.00;99.90
45685;DHT22;46836;48.388;16.210;2023-03-01T11:03:33;8.00;99.90
45685;DHT22;46836;48.388;16.210;2023-03-01T11:06:04;8.10;99.90
45685;DHT22;46836;48.388;16.210;2023-03-01T11:11:14;8.20;99.90
45685;DHT22;46836;48.388;16.210;2023-03-01T11:16:35;8.50;99.90
45685;DHT22;46836;48.388;16.210;2023-03-01T11:21:52;8.80;99.90
45685;DHT22;46836;48.388;16.210;2023-03-01T11:24:34;8.90;99.90
45685;DHT22;46836;48.388;16.210;2023-03-01T11:27:16;9.00;99.90
45685;DHT22;46836;48.388;16.210;2023-03-01T11:29:51;9.10;99.90
45685;DHT22;46836;48.388;16.210;2023-03-01T11:32:22;9.00;99.90
45685;DHT22;46836;48.388;16.210;2023-03-01T11:35:45;8.90;99.90
45685;DHT22;46836;48.388;16.210;2023-03-01T11:44:10;8.70;99.90
45685;DHT22;46836;48.388;16.210;2023-03-01T11:47:05;8.80;99.90
45685;DHT22;46836;48.388;16.210;2023-03-01T11:55:04;8.90;99.90
45685;DHT22;46836;48.388;16.210;2023-03-01T11:58:26;9.00;99.90
45685;DHT22;46836;48.388;16.210;2023-03-01T12:06:33;9.20;99.90
45685;DHT22;46836;48.388;16.210;2023-03-01T12:29:01;9.20;99.90
45685;DHT22;46836;48.388;16.210;2023-03-01T12:51:30;9.40;99.90
45685;DHT22;46836;48.388;16.210;2023-03-01T12:53:59;9.40;99.90
45685;DHT22;46836;48.388;16.210;2023-03-01T12:56:32;9.30;99.90
45685;DHT22;46836;48.388;16.210;2023-03-01T12:59:15;9.30;99.90
45685;DHT22;46836;48.388;16.210;2023-03-01T13:13:12;9.30;99.90
45685;DHT22;46836;48.388;16.210;2023-03-01T13:15:40;9.30;99.90
45685;DHT22;46836;48.388;16.210;2023-03-01T13:21:00;9.30;99.90
45685;DHT22;46836;48.388;16.210;2023-03-01T13:23:31;9.30;99.90
45685;DHT22;46836;48.388;16.210;2023-03-01T13:31:07;9.50;99.90
45685;DHT22;46836;48.388;16.210;2023-03-01T13:38:57;9.90;99.90
45685;DHT22;46836;48.388;16.210;2023-03-01T13:46:53;10.40;99.90
45685;DHT22;46836;48.388;16.210;2023-03-01T13:49:26;10.40;99.90
45685;DHT22;46836;48.388;16.210;2023-03-01T13:52:01;10.60;99.90
45685;DHT22;46836;48.388;16.210;2023-03-01T13:54:32;10.60;99.90
45685;DHT22;46836;48.388;16.210;2023-03-01T13:57:01;10.60;99.90
45685;DHT22;46836;48.388;16.210;2023-03-01T13:59:28;10.50;99.90
45685;DHT22;46836;48.388;16.210;2023-03-01T14:01:59;10.50;99.90
45685;DHT22;46836;48.388;16.210;2023-03-01T14:04:31;10.50;99.90
45685;DHT22;46836;48.388;16.210;2023-03-01T14:07:22;10.40;99.90
45685;DHT22;46836;48.388;16.210;2023-03-01T14:09:56;10.30;99.90
45685;DHT22;46836;48.388;16.210;2023-03-01T14:20:24;10.30;99.90
45685;DHT22;46836;48.388;16.210;2023-03-01T14:22:54;10.20;99.90
45685;DHT22;46836;48.388;16.210;2023-03-01T14:25:33;10.20;99.90
45685;DHT22;46836;48.388;16.210;2023-03-01T14:28:20;10.20;99.90
45685;DHT22;46836;48.388;16.210;2023-03-01T14:30:50;10.10;99.90
45685;DHT22;46836;48.388;16.210;2023-03-01T14:41:00;10.10;99.90
45685;DHT22;46836;48.388;16.210;2023-03-01T14:43:32;10.10;99.90
45685;DHT22;46836;48.388;16.210;2023-03-01T14:46:00;10.10;99.90
45685;DHT22;46836;48.388;16.210;2023-03-01T14:48:28;10.00;99.90
45685;DHT22;46836;48.388;16.210;2023-03-01T14:50:55;10.00;99.90
45685;DHT22;46836;48.388;16.210;2023-03-01T14:53:28;9.90;99.90
45685;DHT22;46836;48.388;16.210;2023-03-01T14:56:03;9.90;99.90
45685;DHT22;46836;48.388;16.210;2023-03-01T14:58:32;9.90;99.90
45685;DHT22;46836;48.388;16.210;2023-03-01T15:01:03;9.90;99.90
45685;DHT22;46836;48.388;16.210;2023-03-01T15:03:34;9.90;99.90
45685;DHT22;46836;48.388;16.210;2023-03-01T15:06:03;9.90;99.90
45685;DHT22;46836;48.388;16.210;2023-03-01T15:08:31;9.90;99.90
45685;DHT22;46836;48.388;16.210;2023-03-01T15:11:15;9.90;99.90
45685;DHT22;46836;48.388;16.210;2023-03-01T15:13:43;9.90;99.90
45685;DHT22;46836;48.388;16.210;2023-03-01T15:16:21;9.80;99.90
45685;DHT22;46836;48.388;16.210;2023-03-01T15:18:55;9.80;99.90
45685;DHT22;46836;48.388;16.210;2023-03-01T15:21:34;9.80;99.90
45685;DHT22;46836;48.388;16.210;2023-03-01T15:24:25;9.80;99.90
45685;DHT22;46836;48.388;16.210;2023-03-01T15:26:57;9.70;99.90
45685;DHT22;46836;48.388;16.210;2023-03-01T15:29:29;9.70;99.90
45685;DHT22;46836;48.388;16.210;2023-03-01T15:32:06;9.50;99.90
45685;DHT22;46836;48.388;16.210;2023-03-01T15:34:47;9.50;99.90
45685;DHT22;46836;48.388;16.210;2023-03-01T15:40:28;9.30;99.90
45685;DHT22;46836;48.388;16.210;2023-03-01T15:43:05;9.20;99.90
45685;DHT22;46836;48.388;16.210;2023-03-01T15:45:33;9.10;99.90
45685;DHT22;46836;48.388;16.210;2023-03-01T15:48:05;9.00;99.90
45685;DHT22;46836;48.388;16.210;2023-03-01T15:50:34;8.90;99.90
45685;DHT22;46836;48.388;16.210;2023-03-01T15:53:10;8.80;99.90
45685;DHT22;46836;48.388;16.210;2023-03-01T15:55:38;8.70;99.90
45685;DHT22;46836;48.388;16.210;2023-03-01T15:58:11;8.70;99.90
45685;DHT22;46836;48.388;16.210;2023-03-01T16:00:39;8.60;99.90
45685;DHT22;46836;48.388;16.210;2023-03-01T16:03:23;8.60;99.90
45685;DHT22;46836;48.388;16.210;2023-03-01T16:05:51;8.40;99.90
45685;DHT22;46836;48.388;16.210;2023-03-01T16:08:18;8.40;99.90
45685;DHT22;46836;48.388;16.210;2023-03-01T16:10:45;8.30;99.90
45685;DHT22;46836;48.388;16.210;2023-03-01T16:13:15;8.30;99.90
45685;DHT22;46836;48.388;16.210;2023-03-01T16:15:42;8.20;99.90
45685;DHT22;46836;48.388;16.210;2023-03-01T16:18:11;8.20;99.90
45685;DHT22;46836;48.388;16.210;2023-03-01T16:20:39;8.10;99.90
45685;DHT22;46836;48.388;16.210;2023-03-01T16:23:08;8.10;99.90
45685;DHT22;46836;48.388;16.210;2023-03-01T16:25:35;8.00;99.90
45685;DHT22;46836;48.388;16.210;2023-03-01T16:28:03;7.90;99.90
45685;DHT22;46836;48.388;16.210;2023-03-01T16:30:37;7.80;99.90
45685;DHT22;46836;48.388;16.210;2023-03-01T16:33:05;7.80;99.90
45685;DHT22;46836;48.388;16.210;2023-03-01T16:35:51;7.70;99.90
45685;DHT22;46836;48.388;16.210;2023-03-01T16:38:19;7.60;99.90
45685;DHT22;46836;48.388;16.210;2023-03-01T16:40:51;7.60;99.90
45685;DHT22;46836;48.388;16.210;2023-03-01T16:43:18;7.50;99.90
45685;DHT22;46836;48.388;16.210;2023-03-01T16:45:46;7.40;99.90
45685;DHT22;46836;48.388;16.210;2023-03-01T16:48:13;7.40;99.90
45685;DHT22;46836;48.388;16.210;2023-03-01T16:50:41;7.30;99.90
45685;DHT22;46836;48.388;16.210;2023-03-01T16:53:09;7.20;99.90
45685;DHT22;46836;48.388;16.210;2023-03-01T16:55:36;7.10;99.90
45685;DHT22;46836;48.388;16.210;2023-03-01T16:58:04;7.10;99.90
45685;DHT22;46836;48.388;16.210;2023-03-01T17:00:40;7.00;99.90
45685;DHT22;46836;48.388;16.210;2023-03-01T17:03:08;6.90;99.90
45685;DHT22;46836;48.388;16.210;2023-03-01T17:05:39;6.80;99.90
45685;DHT22;46836;48.388;16.210;2023-03-01T17:08:07;6.80;99.90
45685;DHT22;46836;48.388;16.210;2023-03-01T17:10:34;6.70;99.90
45685;DHT22;46836;48.388;16.210;2023-03-01T17:13:01;6.70;99.90
45685;DHT22;46836;48.388;16.210;2023-03-01T17:15:29;6.60;99.90
45685;DHT22;46836;48.388;16.210;2023-03-01T17:17:56;6.50;99.90
45685;DHT22;46836;48.388;16.210;2023-03-01T17:20:24;6.50;99.90
45685;DHT22;46836;48.388;16.210;2023-03-01T17:22:51;6.40;99.90
45685;DHT22;46836;48.388;16.210;2023-03-01T17:25:19;6.40;99.90
45685;DHT22;46836;48.388;16.210;2023-03-01T17:27:47;6.30;99.90
45685;DHT22;46836;48.388;16.210;2023-03-01T17:30:16;6.20;99.90
45685;DHT22;46836;48.388;16.210;2023-03-01T17:32:44;6.10;99.90
45685;DHT22;46836;48.388;16.210;2023-03-01T17:35:11;6.00;99.90
45685;DHT22;46836;48.388;16.210;2023-03-01T17:37:41;5.90;99.90
45685;DHT22;46836;48.388;16.210;2023-03-01T17:40:12;5.90;99.90
45685;DHT22;46836;48.388;16.210;2023-03-01T17:42:40;5.90;99.90
45685;DHT22;46836;48.388;16.210;2023-03-01T17:45:08;5.80;99.90
45685;DHT22;46836;48.388;16.210;2023-03-01T17:47:36;5.80;99.90
45685;DHT22;46836;48.388;16.210;2023-03-01T17:50:04;5.70;99.90
45685;DHT22;46836;48.388;16.210;2023-03-01T17:52:33;5.70;99.90
45685;DHT22;46836;48.388;16.210;2023-03-01T17:55:00;5.60;99.90
45685;DHT22;46836;48.388;16.210;2023-03-01T17:57:28;5.60;99.90
45685;DHT22;46836;48.388;16.210;2023-03-01T17:59:55;5.50;99.90